Observation data for Tulia on 09/12/2017      Previous  Date  Next       Current Mesonet Observations  Soil Data  Daily Summary Page  Observations in Plain Language
KTIS 120500Z 17004KT 17/13 A3015 RMK A01 T01650129  RH  081%=      5-min Rain = 0
KTIS 120505Z 18004KT 17/13 A3015 RMK A01 T01650129  RH  080%=      5-min Rain = 0
KTIS 120510Z 18004KT 17/13 A3015 RMK A01 T01660128  RH  080%=      5-min Rain = 0
KTIS 120515Z 18006KT 17/13 A3015 RMK A01 T01650126  RH  079%=      5-min Rain = 0
KTIS 120520Z 17006KT 16/13 A3015 RMK A01 T01640126  RH  080%=      5-min Rain = 0
KTIS 120525Z 17006KT 16/13 A3015 RMK A01 T01640126  RH  080%=      5-min Rain = 0
KTIS 120530Z 16006KT 16/13 A3015 RMK A01 T01630126  RH  080%=      5-min Rain = 0
KTIS 120535Z 17006KT 16/13 A3015 RMK A01 T01620126  RH  081%=      5-min Rain = 0
KTIS 120540Z 18006KT 16/12 A3015 RMK A01 T01630124  RH  079%=      5-min Rain = 0
KTIS 120545Z 17006KT 16/12 A3015 RMK A01 T01640124  RH  079%=      5-min Rain = 0
KTIS 120550Z 17006KT 16/12 A3015 RMK A01 T01630123  RH  079%=      5-min Rain = 0
KTIS 120555Z 18006KT 16/12 A3015 RMK A01 T01620123  RH  079%=      5-min Rain = 0
KTIS 120600Z 18005KT 16/12 A3014 RMK A01 T01620122  RH  079%=      5-min Rain = 0
KTIS 120605Z 19005KT 16/12 A3014 RMK A01 T01620123  RH  079%=      5-min Rain = 0
KTIS 120610Z 19006KT 16/13 A3014 RMK A01 T01630125  RH  080%=      5-min Rain = 0
KTIS 120615Z 19006KT 16/12 A3014 RMK A01 T01630123  RH  079%=      5-min Rain = 0
KTIS 120620Z 19006KT 16/12 A3014 RMK A01 T01630120  RH  077%=      5-min Rain = 0
KTIS 120625Z 19006KT 16/12 A3014 RMK A01 T01640119  RH  076%=      5-min Rain = 0
KTIS 120630Z 20005KT 17/12 A3014 RMK A01 T01650121  RH  077%=      5-min Rain = 0
KTIS 120635Z 20005KT 16/12 A3014 RMK A01 T01640122  RH  077%=      5-min Rain = 0
KTIS 120640Z 20006KT 16/12 A3014 RMK A01 T01640121  RH  077%=      5-min Rain = 0
KTIS 120645Z 20006KT 16/12 A3014 RMK A01 T01630121  RH  077%=      5-min Rain = 0
KTIS 120650Z 21005KT 16/12 A3014 RMK A01 T01630120  RH  077%=      5-min Rain = 0
KTIS 120655Z 20005KT 16/12 A3014 RMK A01 T01640120  RH  077%=      5-min Rain = 0
KTIS 120700Z 20005KT 17/12 A3013 RMK A01 T01660121  RH  076%=      5-min Rain = 0
KTIS 120705Z 21005KT 17/12 A3013 RMK A01 T01650121  RH  076%=      5-min Rain = 0
KTIS 120710Z 20005KT 17/12 A3013 RMK A01 T01650120  RH  076%=      5-min Rain = 0
KTIS 120715Z 20005KT 16/12 A3013 RMK A01 T01630118  RH  076%=      5-min Rain = 0
KTIS 120720Z 21005KT 16/12 A3013 RMK A01 T01620119  RH  077%=      5-min Rain = 0
KTIS 120725Z 21005KT 16/12 A3013 RMK A01 T01630119  RH  077%=      5-min Rain = 0
KTIS 120730Z 21005KT 17/12 A3013 RMK A01 T01650120  RH  076%=      5-min Rain = 0
KTIS 120735Z 22006KT 17/12 A3013 RMK A01 T01650119  RH  075%=      5-min Rain = 0
KTIS 120740Z 22006KT 16/12 A3013 RMK A01 T01620117  RH  076%=      5-min Rain = 0
KTIS 120745Z 22005KT 16/12 A3013 RMK A01 T01600117  RH  077%=      5-min Rain = 0
KTIS 120750Z 21005KT 16/12 A3012 RMK A01 T01580117  RH  078%=      5-min Rain = 0
KTIS 120755Z 21005KT 16/12 A3012 RMK A01 T01570118  RH  079%=      5-min Rain = 0
KTIS 120800Z 21005KT 16/12 A3012 RMK A01 T01570118  RH  079%=      5-min Rain = 0
KTIS 120805Z 21005KT 16/12 A3012 RMK A01 T01560117  RH  079%=      5-min Rain = 0
KTIS 120810Z 21005KT 16/12 A3012 RMK A01 T01550117  RH  079%=      5-min Rain = 0
KTIS 120815Z 21004KT 16/12 A3012 RMK A01 T01560118  RH  080%=      5-min Rain = 0
KTIS 120820Z 20004KT 16/12 A3012 RMK A01 T01550117  RH  080%=      5-min Rain = 0
KTIS 120825Z 22004KT 15/12 A3012 RMK A01 T01530116  RH  080%=      5-min Rain = 0
KTIS 120830Z 22004KT 15/11 A3012 RMK A01 T01500113  RH  079%=      5-min Rain = 0
KTIS 120835Z 22004KT 15/11 A3012 RMK A01 T01490111  RH  080%=      5-min Rain = 0
KTIS 120840Z 22004KT 15/11 A3012 RMK A01 T01470111  RH  080%=      5-min Rain = 0
KTIS 120845Z 22004KT 15/11 A3011 RMK A01 T01460111  RH  081%=      5-min Rain = 0
KTIS 120850Z 22004KT 15/11 A3011 RMK A01 T01450111  RH  082%=      5-min Rain = 0
KTIS 120855Z 22004KT 14/11 A3011 RMK A01 T01440111  RH  082%=      5-min Rain = 0
KTIS 120900Z 23005KT 14/11 A3011 RMK A01 T01430110  RH  082%=      5-min Rain = 0
KTIS 120905Z 22005KT 14/11 A3011 RMK A01 T01420111  RH  083%=      5-min Rain = 0
KTIS 120910Z 22005KT 14/11 A3011 RMK A01 T01420111  RH  083%=      5-min Rain = 0
KTIS 120915Z 22005KT 14/11 A3011 RMK A01 T01420111  RH  083%=      5-min Rain = 0
KTIS 120920Z 23006KT 14/11 A301 RMK A01 T01440112  RH  082%=      5-min Rain = 0
KTIS 120925Z 23005KT 15/11 A301 RMK A01 T01460112  RH  081%=      5-min Rain = 0
KTIS 120930Z 23005KT 15/11 A3011 RMK A01 T01470112  RH  081%=      5-min Rain = 0
KTIS 120935Z 24006KT 15/11 A301 RMK A01 T01470112  RH  081%=      5-min Rain = 0
KTIS 120940Z 24006KT 15/11 A301 RMK A01 T01490112  RH  080%=      5-min Rain = 0
KTIS 120945Z 24006KT 15/11 A301 RMK A01 T01500112  RH  080%=      5-min Rain = 0
KTIS 120950Z 24006KT 15/11 A301 RMK A01 T01510113  RH  080%=      5-min Rain = 0
KTIS 120955Z 25006KT 15/11 A301 RMK A01 T01510113  RH  080%=      5-min Rain = 0
KTIS 121000Z 25005KT 15/11 A301 RMK A01 T01500112  RH  079%=      5-min Rain = 0
KTIS 121005Z 26005KT 15/11 A301 RMK A01 T01480112  RH  080%=      5-min Rain = 0
KTIS 121010Z 26005KT 15/11 A301 RMK A01 T01470112  RH  081%=      5-min Rain = 0
KTIS 121015Z 26005KT 15/11 A301 RMK A01 T01470112  RH  081%=      5-min Rain = 0
KTIS 121020Z 25004KT 15/11 A301 RMK A01 T01450111  RH  081%=      5-min Rain = 0
KTIS 121025Z 24003KT 14/11 A301 RMK A01 T01440110  RH  082%=      5-min Rain = 0
KTIS 121030Z 24002KT 14/11 A301 RMK A01 T01410109  RH  082%=      5-min Rain = 0
KTIS 121035Z 23002KT 14/11 A301 RMK A01 T01380108  RH  083%=      5-min Rain = 0
KTIS 121040Z 24002KT 14/11 A301 RMK A01 T01350107  RH  084%=      5-min Rain = 0
KTIS 121045Z 24003KT 13/11 A301 RMK A01 T01320107  RH  086%=      5-min Rain = 0
KTIS 121050Z 24002KT 13/11 A301 RMK A01 T01280105  RH  088%=      5-min Rain = 0
KTIS 121055Z 24002KT 13/11 A301 RMK A01 T01260105  RH  089%=      5-min Rain = 0
KTIS 121100Z 25001KT 12/11 A301 RMK A01 T01240105  RH  090%=      5-min Rain = 0
KTIS 121105Z 25002KT 12/11 A301 RMK A01 T01220106  RH  091%=      5-min Rain = 0
KTIS 121110Z 25002KT 12/11 A301 RMK A01 T01220106  RH  092%=      5-min Rain = 0
KTIS 121115Z 26003KT 12/11 A301 RMK A01 T01220108  RH  092%=      5-min Rain = 0
KTIS 121120Z 26003KT 12/11 A301 RMK A01 T01240109  RH  092%=      5-min Rain = 0
KTIS 121125Z 26003KT 13/11 A301 RMK A01 T01250108  RH  092%=      5-min Rain = 0
KTIS 121130Z 26004KT 13/11 A301 RMK A01 T01250108  RH  091%=      5-min Rain = 0
KTIS 121135Z 26003KT 12/11 A301 RMK A01 T01240107  RH  091%=      5-min Rain = 0
KTIS 121140Z 26002KT 13/11 A301 RMK A01 T01260109  RH  091%=      5-min Rain = 0
KTIS 121145Z 26001KT 13/11 A301 RMK A01 T01260108  RH  090%=      5-min Rain = 0
KTIS 121150Z 00000KT 12/11 A301 RMK A01 T01240106  RH  090%=      5-min Rain = 0
KTIS 121155Z 00000KT 12/10 A301 RMK A01 T01200104  RH  091%=      5-min Rain = 0
KTIS 121200Z 00000KT 12/10 A301 RMK A01 T01170102  RH  092%=      5-min Rain = 0
KTIS 121205Z 00000KT 12/10 A301 RMK A01 T01150100  RH  092%=      5-min Rain = 0
KTIS 121210Z 00000KT 11/10 A301 RMK A01 T01130099  RH  092%=      5-min Rain = 0
KTIS 121215Z 00000KT 11/10 A301 RMK A01 T01130099  RH  093%=      5-min Rain = 0
KTIS 121220Z 19000KT 11/10 A301 RMK A01 T01130100  RH  093%=      5-min Rain = 0
KTIS 121225Z 18001KT 11/10 A301 RMK A01 T01130101  RH  094%=      5-min Rain = 0
KTIS 121230Z 16002KT 11/10 A301 RMK A01 T01130100  RH  094%=      5-min Rain = 0
KTIS 121235Z 15001KT 11/10 A301 RMK A01 T01120100  RH  094%=      5-min Rain = 0
KTIS 121240Z 00000KT 11/10 A301 RMK A01 T01110100  RH  094%=      5-min Rain = 0
KTIS 121245Z 00000KT 11/10 A301 RMK A01 T01110100  RH  094%=      5-min Rain = 0
KTIS 121250Z 00000KT 11/10 A301 RMK A01 T01110100  RH  095%=      5-min Rain = 0
KTIS 121255Z 00000KT 11/10 A301 RMK A01 T01120102  RH  095%=      5-min Rain = 0
KTIS 121300Z 16000KT 12/11 A301 RMK A01 T01150105  RH  095%=      5-min Rain = 0
KTIS 121305Z 20000KT 12/11 A301 RMK A01 T01190109  RH  095%=      5-min Rain = 0
KTIS 121310Z 21002KT 12/11 A301 RMK A01 T01230113  RH  095%=      5-min Rain = 0
KTIS 121315Z 21002KT 13/12 A301 RMK A01 T01270117  RH  095%=      5-min Rain = 0
KTIS 121320Z 21002KT 13/13 A301 RMK A01 T01340125  RH  096%=      5-min Rain = 0
KTIS 121325Z 21002KT 14/13 A301 RMK A01 T01420130  RH  094%=      5-min Rain = 0
KTIS 121330Z 22002KT 15/13 A301 RMK A01 T01460130  RH  092%=      5-min Rain = 0
KTIS 121335Z 22002KT 15/13 A3009 RMK A01 T01500130  RH  089%=      5-min Rain = 0
KTIS 121340Z 20002KT 16/13 A3009 RMK A01 T01560128  RH  085%=      5-min Rain = 0
KTIS 121345Z 19002KT 16/13 A3009 RMK A01 T01630131  RH  083%=      5-min Rain = 0
KTIS 121350Z 20003KT 17/13 A3009 RMK A01 T01670130  RH  080%=      5-min Rain = 0
KTIS 121355Z 21005KT 17/13 A3009 RMK A01 T01700126  RH  077%=      5-min Rain = 0
KTIS 121400Z 21005KT 17/13 A3009 RMK A01 T01730126  RH  075%=      5-min Rain = 0
KTIS 121405Z 20005KT 18/13 A3009 RMK A01 T01760126  RH  074%=      5-min Rain = 0
KTIS 121410Z 19004KT 18/13 A3009 RMK A01 T01800130  RH  074%=      5-min Rain = 0
KTIS 121415Z 19004KT 18/13 A3009 RMK A01 T01840132  RH  073%=      5-min Rain = 0
KTIS 121420Z 18004KT 19/13 A301 RMK A01 T01870133  RH  072%=      5-min Rain = 0
KTIS 121425Z 18004KT 19/14 A3009 RMK A01 T01910136  RH  072%=      5-min Rain = 0
KTIS 121430Z 17004KT 20/14 A3009 RMK A01 T01950140  RH  072%=      5-min Rain = 0
KTIS 121435Z 18004KT 20/14 A3009 RMK A01 T01990139  RH  069%=      5-min Rain = 0
KTIS 121440Z 18004KT 20/14 A3009 RMK A01 T02030138  RH  068%=      5-min Rain = 0
KTIS 121445Z 19005KT 21/14 A3009 RMK A01 T02070137  RH  066%=      5-min Rain = 0
KTIS 121450Z 20005KT 21/14 A3009 RMK A01 T02090137  RH  065%=      5-min Rain = 0
KTIS 121455Z 19006KT 21/14 A3009 RMK A01 T02130138  RH  063%=      5-min Rain = 0
KTIS 121500Z 19005KT 22/14 A3009 RMK A01 T02180139  RH  062%=      5-min Rain = 0
KTIS 121505Z 17005KT 22/14 A3009 RMK A01 T02210141  RH  062%=      5-min Rain = 0
KTIS 121510Z 18005KT 22/14 A3009 RMK A01 T02230140  RH  061%=      5-min Rain = 0
KTIS 121515Z 19005KT 23/14 A3009 RMK A01 T02270141  RH  060%=      5-min Rain = 0
KTIS 121520Z 18005KT 23/14 A3009 RMK A01 T02290142  RH  059%=      5-min Rain = 0
KTIS 121525Z 18004KT 23/14 A3009 RMK A01 T02330143  RH  058%=      5-min Rain = 0
KTIS 121530Z 19004KT 24/14 A3009 RMK A01 T02350142  RH  057%=      5-min Rain = 0
KTIS 121535Z 18004KT 24/15 A3009 RMK A01 T02390145  RH  057%=      5-min Rain = 0
KTIS 121540Z 19003KT 24/14 A3009 RMK A01 T02420140  RH  054%=      5-min Rain = 0
KTIS 121545Z 19004KT 24/14 A3009 RMK A01 T02440141  RH  054%=      5-min Rain = 0
KTIS 121550Z 20005KT 25/14 A3009 RMK A01 T02450142  RH  054%=      5-min Rain = 0
KTIS 121555Z 21005KT 25/14 A3009 RMK A01 T02470139  RH  052%=      5-min Rain = 0
KTIS 121600Z 21004KT 25/14 A3009 RMK A01 T02490140  RH  052%=      5-min Rain = 0
KTIS 121605Z 18005KT 25/14 A3009 RMK A01 T02530143  RH  052%=      5-min Rain = 0
KTIS 121610Z 17005KT 26/14 A3009 RMK A01 T02550139  RH  050%=      5-min Rain = 0
KTIS 121615Z 18004KT 26/14 A3009 RMK A01 T02550139  RH  050%=      5-min Rain = 0
KTIS 121620Z 17005KT 26/15 A3008 RMK A01 T02600145  RH  050%=      5-min Rain = 0
KTIS 121625Z 17003KT 27/15 A3008 RMK A01 T02650146  RH  049%=      5-min Rain = 0
KTIS 121630Z 18004KT 27/14 A3008 RMK A01 T02670143  RH  048%=      5-min Rain = 0
KTIS 121635Z 20004KT 27/14 A3008 RMK A01 T02670138  RH  046%=      5-min Rain = 0
KTIS 121640Z 22002KT 27/14 A3008 RMK A01 T02670138  RH  046%=      5-min Rain = 0
KTIS 121645Z 18004KT 27/14 A3008 RMK A01 T02710137  RH  045%=      5-min Rain = 0
KTIS 121650Z 20004KT 27/14 A3008 RMK A01 T02730138  RH  044%=      5-min Rain = 0
KTIS 121655Z 25003KT 27/13 A3008 RMK A01 T02730133  RH  043%=      5-min Rain = 0
KTIS 121700Z 19003KT 28/13 A3008 RMK A01 T02750134  RH  043%=      5-min Rain = 0
KTIS 121705Z 18003KT 28/13 A3008 RMK A01 T02780133  RH  042%=      5-min Rain = 0
KTIS 121710Z 23003KT 28/14 A3007 RMK A01 T02810135  RH  041%=      5-min Rain = 0
KTIS 121715Z 23000KT 28/13 A3007 RMK A01 T02810132  RH  041%=      5-min Rain = 0
KTIS 121720Z 27002KT 29/13 A3007 RMK A01 T02850134  RH  040%=      5-min Rain = 0
KTIS 121725Z 21004KT 29/13 A3007 RMK A01 T02880130  RH  039%=      5-min Rain = 0
KTIS 121730Z 27001KT 29/13 A3007 RMK A01 T02880130  RH  039%=      5-min Rain = 0
KTIS 121735Z 24002KT 29/13 A3007 RMK A01 T02900127  RH  037%=      5-min Rain = 0
KTIS 121740Z 29003KT 29/13 A3006 RMK A01 T02880125  RH  037%=      5-min Rain = 0
KTIS 121745Z 26004KT 29/13 A3006 RMK A01 T02900126  RH  037%=      5-min Rain = 0
KTIS 121750Z 27003KT 29/12 A3006 RMK A01 T02910124  RH  036%=      5-min Rain = 0
KTIS 121755Z 34003KT 29/13 A3006 RMK A01 T02940126  RH  036%=      5-min Rain = 0
KTIS 121800Z 00001KT 30/13 A3005 RMK A01 T02960133  RH  038%=      5-min Rain = 0
KTIS 121805Z 26002G7KT 30/13 A3005 RMK A01 T03020134  RH  037%=      5-min Rain = 0
KTIS 121810Z 28003KT 30/13 A3005 RMK A01 T03000127  RH  035%=      5-min Rain = 0
KTIS 121815Z 30002KT 30/13 A3005 RMK A01 T03000127  RH  035%=      5-min Rain = 0
KTIS 121820Z 25002KT 30/13 A3005 RMK A01 T03030128  RH  035%=      5-min Rain = 0
KTIS 121825Z 29003KT 30/12 A3004 RMK A01 T03020124  RH  034%=      5-min Rain = 0
KTIS 121830Z 33001G6KT 30/13 A3004 RMK A01 T03030125  RH  034%=      5-min Rain = 0
KTIS 121835Z 15001KT 31/13 A3004 RMK A01 T03060126  RH  034%=      5-min Rain = 0
KTIS 121840Z 17003KT 31/13 A3003 RMK A01 T03080130  RH  034%=      5-min Rain = 0
KTIS 121845Z 20003KT 31/12 A3003 RMK A01 T03060121  RH  033%=      5-min Rain = 0
KTIS 121850Z 11002KT 31/13 A3003 RMK A01 T03080131  RH  035%=      5-min Rain = 0
KTIS 121855Z 10003KT 31/13 A3003 RMK A01 T03110133  RH  034%=      5-min Rain = 0
KTIS 121900Z 24003KT 31/12 A3002 RMK A01 T03140120  RH  031%=      5-min Rain = 0
KTIS 121905Z 21002KT 32/12 A3002 RMK A01 T03160117  RH  030%=      5-min Rain = 0
KTIS 121910Z 35002KT 32/12 A3002 RMK A01 T03200117  RH  029%=      5-min Rain = 0
KTIS 121915Z 03003KT 32/12 A3002 RMK A01 T03220121  RH  030%=      5-min Rain = 0
KTIS 121920Z 07002KT 32/12 A3002 RMK A01 T03220116  RH  029%=      5-min Rain = 0
KTIS 121925Z 08001KT 32/11 A3001 RMK A01 T03210112  RH  028%=      5-min Rain = 0
KTIS 121930Z 30002KT 32/11 A3001 RMK A01 T03210105  RH  027%=      5-min Rain = 0
KTIS 121935Z 32002KT 32/10 A3001 RMK A01 T03220104  RH  027%=      5-min Rain = 0
KTIS 121940Z 35001KT 32/10 A30 RMK A01 T03240103  RH  026%=      5-min Rain = 0
KTIS 121945Z 33001KT 33/11 A30 RMK A01 T03270108  RH  027%=      5-min Rain = 0
KTIS 121950Z 35002KT 33/10 A30 RMK A01 T03280102  RH  025%=      5-min Rain = 0
KTIS 121955Z 15002KT 33/10 A30 RMK A01 T03250096  RH  025%=      5-min Rain = 0
KTIS 122000Z 08002KT 33/10 A2999 RMK A01 T03250103  RH  026%=      5-min Rain = 0
KTIS 122005Z 04003KT 33/10 A2999 RMK A01 T03250103  RH  026%=      5-min Rain = 0
KTIS 122010Z 35004KT 33/11 A2999 RMK A01 T03290109  RH  026%=      5-min Rain = 0
KTIS 122015Z 33002KT 33/10 A2999 RMK A01 T03300101  RH  025%=      5-min Rain = 0
KTIS 122020Z 11001KT 33/11 A2998 RMK A01 T03340114  RH  027%=      5-min Rain = 0
KTIS 122025Z 12001KT 33/11 A2998 RMK A01 T03310109  RH  026%=      5-min Rain = 0
KTIS 122030Z 12002G7KT 33/12 A2998 RMK A01 T03330118  RH  028%=      5-min Rain = 0
KTIS 122035Z 12006KT 33/13 A2997 RMK A01 T03290128  RH  030%=      5-min Rain = 0
KTIS 122040Z 10006KT 33/13 A2997 RMK A01 T03250131  RH  031%=      5-min Rain = 0
KTIS 122045Z 08006KT 33/13 A2997 RMK A01 T03260132  RH  031%=      5-min Rain = 0
KTIS 122050Z 08004KT 33/13 A2997 RMK A01 T03250128  RH  031%=      5-min Rain = 0
KTIS 122055Z 08005KT 33/12 A2996 RMK A01 T03250123  RH  030%=      5-min Rain = 0
KTIS 122100Z 11006KT 32/12 A2996 RMK A01 T03220122  RH  030%=      5-min Rain = 0
KTIS 122105Z 11005KT 32/13 A2996 RMK A01 T03230129  RH  031%=      5-min Rain = 0
KTIS 122110Z 08005KT 32/13 A2996 RMK A01 T03230126  RH  031%=      5-min Rain = 0
KTIS 122115Z 13004KT 32/12 A2996 RMK A01 T03230123  RH  030%=      5-min Rain = 0
KTIS 122120Z 16005KT 32/12 A2996 RMK A01 T03240122  RH  030%=      5-min Rain = 0
KTIS 122125Z 12004KT 32/13 A2995 RMK A01 T03190131  RH  033%=      5-min Rain = 0
KTIS 122130Z 13003KT 31/14 A2995 RMK A01 T03130135  RH  035%=      5-min Rain = 0
KTIS 122135Z 09005KT 31/14 A2995 RMK A01 T03100141  RH  037%=      5-min Rain = 0
KTIS 122140Z 09005KT 30/14 A2995 RMK A01 T03010137  RH  037%=      5-min Rain = 0
KTIS 122145Z 07006KT 30/13 A2995 RMK A01 T02960129  RH  036%=      5-min Rain = 0
KTIS 122150Z 08006KT 30/13 A2995 RMK A01 T02980132  RH  037%=      5-min Rain = 0
KTIS 122155Z 09004KT 30/13 A2995 RMK A01 T02960134  RH  038%=      5-min Rain = 0
KTIS 122200Z 07005KT 30/13 A2995 RMK A01 T02980128  RH  036%=      5-min Rain = 0
KTIS 122205Z 04004KT 31/12 A2995 RMK A01 T03080121  RH  032%=      5-min Rain = 0
KTIS 122210Z 09003KT 32/13 A2995 RMK A01 T03150128  RH  033%=      5-min Rain = 0
KTIS 122215Z 12006KT 32/13 A2994 RMK A01 T03150129  RH  033%=      5-min Rain = 0
KTIS 122220Z 08007KT 32/13 A2994 RMK A01 T03150125  RH  032%=      5-min Rain = 0
KTIS 122225Z 07005KT 31/12 A2994 RMK A01 T03120123  RH  032%=      5-min Rain = 0
KTIS 122230Z 10005KT 31/13 A2994 RMK A01 T03120126  RH  033%=      5-min Rain = 0
KTIS 122235Z 10008KT 31/13 A2994 RMK A01 T03140130  RH  033%=      5-min Rain = 0
KTIS 122240Z 08009KT 31/13 A2994 RMK A01 T03130130  RH  033%=      5-min Rain = 0
KTIS 122245Z 08012G18KT 31/13 A2994 RMK A01 T03110129  RH  034%=      5-min Rain = 0
KTIS 122250Z 08012KT 31/14 A2994 RMK A01 T03070141  RH  037%=      5-min Rain = 0
KTIS 122255Z 07012KT 31/14 A2994 RMK A01 T03060139  RH  037%=      5-min Rain = 0
KTIS 122300Z 07012KT 31/14 A2994 RMK A01 T03050139  RH  037%=      5-min Rain = 0
KTIS 122305Z 08013G18KT 30/14 A2994 RMK A01 T03040141  RH  038%=      5-min Rain = 0
KTIS 122310Z 07014KT 30/14 A2994 RMK A01 T03020141  RH  038%=      5-min Rain = 0
KTIS 122315Z 08012KT 30/14 A2994 RMK A01 T03000144  RH  039%=      5-min Rain = 0
KTIS 122320Z 09012KT 30/14 A2994 RMK A01 T02980143  RH  040%=      5-min Rain = 0
KTIS 122325Z 10012KT 30/14 A2994 RMK A01 T02950143  RH  040%=      5-min Rain = 0
KTIS 122330Z 09012G17KT 29/15 A2994 RMK A01 T02930145  RH  041%=      5-min Rain = 0
KTIS 122335Z 10012KT 29/15 A2994 RMK A01 T02910145  RH  042%=      5-min Rain = 0
KTIS 122340Z 09013KT 29/14 A2994 RMK A01 T02890143  RH  042%=      5-min Rain = 0
KTIS 122345Z 10010KT 29/15 A2994 RMK A01 T02860145  RH  043%=      5-min Rain = 0
KTIS 122350Z 10010KT 28/15 A2994 RMK A01 T02830148  RH  045%=      5-min Rain = 0
KTIS 122355Z 10011KT 28/15 A2994 RMK A01 T02800147  RH  045%=      5-min Rain = 0
KTIS 130000Z 10010KT 28/15 A2994 RMK A01 T02780146  RH  045%=      5-min Rain = 0
KTIS 130005Z 10010KT 28/15 A2994 RMK A01 T02760146  RH  046%=      5-min Rain = 0
KTIS 130010Z 10010KT 27/15 A2995 RMK A01 T02740145  RH  046%=      5-min Rain = 0
KTIS 130015Z 10009KT 27/15 A2995 RMK A01 T02710147  RH  048%=      5-min Rain = 0
KTIS 130020Z 10008KT 27/15 A2995 RMK A01 T02680148  RH  049%=      5-min Rain = 0
KTIS 130025Z 10008KT 27/15 A2995 RMK A01 T02650147  RH  049%=      5-min Rain = 0
KTIS 130030Z 10009KT 26/15 A2995 RMK A01 T02610146  RH  050%=      5-min Rain = 0
KTIS 130035Z 10009KT 26/15 A2995 RMK A01 T02580146  RH  051%=      5-min Rain = 0
KTIS 130040Z 10008KT 25/15 A2995 RMK A01 T02540146  RH  052%=      5-min Rain = 0
KTIS 130045Z 11008KT 25/15 A2995 RMK A01 T02500147  RH  054%=      5-min Rain = 0
KTIS 130050Z 11007KT 25/15 A2995 RMK A01 T02460146  RH  055%=      5-min Rain = 0
KTIS 130055Z 11008KT 24/15 A2995 RMK A01 T02430145  RH  055%=      5-min Rain = 0
KTIS 130100Z 11007KT 24/15 A2995 RMK A01 T02410145  RH  056%=      5-min Rain = 0
KTIS 130105Z 11007KT 24/15 A2995 RMK A01 T02360146  RH  058%=      5-min Rain = 0
KTIS 130110Z 11007KT 23/15 A2995 RMK A01 T02300146  RH  060%=      5-min Rain = 0
KTIS 130115Z 11006KT 23/15 A2995 RMK A01 T02260146  RH  062%=      5-min Rain = 0
KTIS 130120Z 11006KT 22/15 A2995 RMK A01 T02210147  RH  064%=      5-min Rain = 0
KTIS 130125Z 11006KT 22/15 A2995 RMK A01 T02170147  RH  066%=      5-min Rain = 0
KTIS 130130Z 11006KT 21/15 A2995 RMK A01 T02120146  RH  067%=      5-min Rain = 0
KTIS 130135Z 11006KT 21/15 A2996 RMK A01 T02090147  RH  069%=      5-min Rain = 0
KTIS 130140Z 12007KT 21/15 A2996 RMK A01 T02060146  RH  070%=      5-min Rain = 0
KTIS 130145Z 12007KT 21/15 A2996 RMK A01 T02060146  RH  070%=      5-min Rain = 0
KTIS 130150Z 12006KT 21/15 A2996 RMK A01 T02050147  RH  071%=      5-min Rain = 0
KTIS 130155Z 12006KT 20/15 A2996 RMK A01 T02010147  RH  073%=      5-min Rain = 0
KTIS 130200Z 12006KT 20/15 A2996 RMK A01 T01980148  RH  075%=      5-min Rain = 0
KTIS 130205Z 12006KT 20/15 A2996 RMK A01 T01950147  RH  075%=      5-min Rain = 0
KTIS 130210Z 12006KT 19/15 A2997 RMK A01 T01930146  RH  076%=      5-min Rain = 0
KTIS 130215Z 12006KT 19/15 A2997 RMK A01 T01920145  RH  076%=      5-min Rain = 0
KTIS 130220Z 12006KT 19/15 A2997 RMK A01 T01900145  RH  076%=      5-min Rain = 0
KTIS 130225Z 12006KT 19/14 A2997 RMK A01 T01900144  RH  076%=      5-min Rain = 0
KTIS 130230Z 11007KT 19/14 A2997 RMK A01 T01900143  RH  075%=      5-min Rain = 0
KTIS 130235Z 12006KT 19/14 A2997 RMK A01 T01910142  RH  075%=      5-min Rain = 0
KTIS 130240Z 11005KT 19/14 A2997 RMK A01 T01910141  RH  074%=      5-min Rain = 0
KTIS 130245Z 11006KT 19/14 A2997 RMK A01 T01890140  RH  075%=      5-min Rain = 0
KTIS 130250Z 11005KT 19/14 A2998 RMK A01 T01890139  RH  074%=      5-min Rain = 0
KTIS 130255Z 10004KT 19/14 A2998 RMK A01 T01870141  RH  076%=      5-min Rain = 0
KTIS 130300Z 10004KT 18/14 A2998 RMK A01 T01840141  RH  078%=      5-min Rain = 0
KTIS 130305Z 10003KT 18/14 A2998 RMK A01 T01810141  RH  079%=      5-min Rain = 0
KTIS 130310Z 10003KT 18/14 A2998 RMK A01 T01790140  RH  080%=      5-min Rain = 0
KTIS 130315Z 10004KT 18/14 A2998 RMK A01 T01770139  RH  080%=      5-min Rain = 0
KTIS 130320Z 10004KT 18/14 A2998 RMK A01 T01750139  RH  081%=      5-min Rain = 0
KTIS 130325Z 10005KT 17/14 A2998 RMK A01 T01730138  RH  082%=      5-min Rain = 0
KTIS 130330Z 10005KT 17/14 A2998 RMK A01 T01700139  RH  083%=      5-min Rain = 0
KTIS 130335Z 10004KT 17/14 A2998 RMK A01 T01690138  RH  084%=      5-min Rain = 0
KTIS 130340Z 10004KT 17/14 A2998 RMK A01 T01670138  RH  085%=      5-min Rain = 0
KTIS 130345Z 09004KT 17/14 A2998 RMK A01 T01660138  RH  085%=      5-min Rain = 0
KTIS 130350Z 10004KT 17/14 A2998 RMK A01 T01650138  RH  086%=      5-min Rain = 0
KTIS 130355Z 10004KT 16/14 A2998 RMK A01 T01640137  RH  086%=      5-min Rain = 0
KTIS 130400Z 09003KT 16/14 A2998 RMK A01 T01630136  RH  086%=      5-min Rain = 0
KTIS 130405Z 11004KT 16/14 A2998 RMK A01 T01620135  RH  086%=      5-min Rain = 0
KTIS 130410Z 12003KT 16/14 A2998 RMK A01 T01620135  RH  086%=      5-min Rain = 0
KTIS 130415Z 13003KT 16/13 A2998 RMK A01 T01600134  RH  086%=      5-min Rain = 0
KTIS 130420Z 12003KT 16/14 A2998 RMK A01 T01590135  RH  087%=      5-min Rain = 0
KTIS 130425Z 12004KT 16/14 A2998 RMK A01 T01590135  RH  087%=      5-min Rain = 0
KTIS 130430Z 13003KT 16/13 A2998 RMK A01 T01580134  RH  087%=      5-min Rain = 0
KTIS 130435Z 14003KT 16/13 A2999 RMK A01 T01580134  RH  087%=      5-min Rain = 0
KTIS 130440Z 14004KT 16/13 A2999 RMK A01 T01580133  RH  087%=      5-min Rain = 0
KTIS 130445Z 13005KT 16/14 A2999 RMK A01 T01610135  RH  086%=      5-min Rain = 0
KTIS 130450Z 14005KT 17/13 A2999 RMK A01 T01650133  RH  083%=      5-min Rain = 0
KTIS 130455Z 14005KT 17/13 A2999 RMK A01 T01660132  RH  082%=      5-min Rain = 0

Page generated in 0.0089 seconds.